Kendall, KS (67857)

7:24 AM MDT on October 02, 2014 (GMT -0600)
Pics By Clayton Photography | Change Station
CLOSE
Current Station
Personal Weather Station
Location: Kendall, KS
Elevation: 3172 ft
Nearby Weather Stations

Elev 3172 ft 37.93 °N, 101.52 °W | Updated 4 seconds ago

Overcast
Overcast
51.9 °F
Feels Like 51.9 °F
N
19.6
Wind Variable Wind from North
Gusts 19.6 mph

Today
High -- | Low -- °F
--% Chance of Precip.
Yesterday
High -- | Low -- °F
Precip. -- in
6:42 AM 6:27 PM
First Quarter, 58% visible
Pressure 29.91 in
Visibility 10.0 miles
Clouds Few 4800 ft
Mostly Cloudy 8000 ft
Overcast 11000 ft
Dew Point 46 °F
Humidity 80%
Rainfall 0.00 in
Snow Depth Not available.
UV 0.0 out of 12
Pollen 3.50 out of 12
Air Quality Not available.
Flu Activity Not available.
METAR KGCK 021254Z 35016KT 10SM FEW048 BKN080 OVC110 11/09 A2996 RMK AO2 PK WND 35027/1219 LTG DSNT NE RAB12E49 TSB06E26 SLP127 VIS SE 3 P0008 T01060094

More Conditions Fewer Conditions

Pressure 29.91 in
Visibility 10.0 miles
Clouds Few 4800 ft
Mostly Cloudy 8000 ft
Overcast 11000 ft
Dew Point 46 °F
Humidity 80%
Rainfall 0.00 in
Snow Depth Not available.
UV 0.0 out of 12
Pollen 3.50 out of 12
Air Quality Not available.
Flu Activity Not available.
METAR KGCK 021254Z 35016KT 10SM FEW048 BKN080 OVC110 11/09 A2996 RMK AO2 PK WND 35027/1219 LTG DSNT NE RAB12E49 TSB06E26 SLP127 VIS SE 3 P0008 T01060094

More Conditions Fewer Conditions

10-Day Weather Forecast

Almanac

Astronomy

Oct. 02, 2014 Rise Set
Actual Time 6:42 AM MDT 6:27 PM MDT
Civil Twilight 6:16 AM MDT 6:53 PM MDT
Nautical Twilight 5:46 AM MDT 7:24 PM MDT
Astronomical Twilight 5:15 AM MDT 7:54 PM MDT
Moon 2:30 PM MDT 12:07 AM MDT
Length of Visible Light 12h 37m
Length of Day
11h 44m
Tomorrow will be 2m 24s shorter.
First Quarter, 58% of the Moon is Illuminated
Today
First Quarter
Oct 8
Full
Oct 15
Last Quarter
Oct 23
New
Oct 30
First Quarter

Today's Extremes

State Highs State Lows

Community

WunderPhotos

Upload Photos

1,758,236 photos uploaded!

WunderBlogs® & News

By Dr. Jeff Masters
Director of Meteorology, Weather Underground
By Kari Strenfel
Meteorologist, Weather Underground
By Christopher C. Burt
Weather Historian, Weather Underground
October 2, 2014
October 2, 2014
October 2, 2014

Nearby

Snow Depth

Station Depth Elevation
No new snow has been reported.

Earthquake Activity

City Distance Mag. Time & Date
No recent earthquake activity has been reported nearby.
Minimum magnitude displayed is 2.5.

Coastal Water Temperatures

Place Temperature
No Stations Reporting

Nearby Weather Stations